Time;durP1;ratioP1;P1;durP2;ratioP2;P2;SDS_P1;SDS_P2;PMS_P1;PMS_P2;Temp;Humidity;BMP_temperature;BMP_pressure;BME280_temperature;BME280_humidity;BME280_pressure;Samples;Min_cycle;Max_cycle;Signal;HPM_P1;HPM_P2
2022/08/04 00:01:35;;;;;;;9.13;3.25;;;19.20;99.90;;;;;;6308193;22;20064;-87
2022/08/04 00:04:07;;;;;;;10.63;3.03;;;19.10;99.90;;;;;;6293405;22;20011;-87
2022/08/04 00:07:03;;;;;;;7.35;3.40;;;19.10;99.90;;;;;;6292767;22;20018;-87
2022/08/04 00:09:42;;;;;;;11.82;3.63;;;19.10;99.90;;;;;;6281876;22;20019;-87
2022/08/04 00:12:10;;;;;;;13.07;4.20;;;19.10;99.90;;;;;;6309568;22;20011;-87
2022/08/04 00:14:40;;;;;;;9.20;3.70;;;19.10;99.90;;;;;;6308662;22;20019;-87
2022/08/04 00:17:07;;;;;;;11.80;3.38;;;19.00;99.90;;;;;;6281517;22;20094;-87
2022/08/04 00:19:43;;;;;;;7.20;3.92;;;19.20;99.90;;;;;;6309520;22;20055;-88
2022/08/04 00:22:12;;;;;;;11.52;3.60;;;19.00;99.90;;;;;;6307008;22;20007;-87
2022/08/04 00:24:38;;;;;;;12.25;4.03;;;19.00;99.90;;;;;;6281501;22;20038;-87
2022/08/04 00:27:07;;;;;;;12.32;4.22;;;19.10;99.90;;;;;;6307407;22;20015;-87
2022/08/04 00:29:36;;;;;;;16.75;5.82;;;19.00;99.90;;;;;;6306866;22;20477;-87
2022/08/04 00:32:03;;;;;;;10.63;3.95;;;19.10;99.90;;;;;;6281539;22;20030;-88
2022/08/04 00:34:30;;;;;;;10.20;3.80;;;19.10;99.90;;;;;;6308306;22;20023;-87
2022/08/04 00:36:57;;;;;;;11.23;4.18;;;19.00;99.90;;;;;;6307619;22;20381;-88
2022/08/04 00:39:24;;;;;;;8.93;3.70;;;18.20;99.90;;;;;;6308717;22;20061;-88
2022/08/04 00:42:14;;;;;;;11.80;3.40;;;19.00;99.90;;;;;;6307384;22;20072;-87
2022/08/04 00:45:13;;;;;;;6.93;2.92;;;18.90;99.90;;;;;;6306559;22;20058;-87
2022/08/04 00:48:12;;;;;;;9.98;3.78;;;18.90;99.90;;;;;;6282645;22;20019;-87
2022/08/04 00:50:51;;;;;;;9.02;2.78;;;19.00;99.90;;;;;;6280024;22;20026;-88
2022/08/04 00:53:34;;;;;;;8.43;3.25;;;18.90;99.90;;;;;;6282473;22;20019;-87
2022/08/04 00:56:24;;;;;;;10.25;3.10;;;18.90;99.90;;;;;;6307126;22;20098;-88
2022/08/04 00:59:08;;;;;;;12.95;3.30;;;18.90;99.90;;;;;;6307902;22;20016;-87
2022/08/04 01:02:13;;;;;;;8.45;3.33;;;18.80;99.90;;;;;;6308041;22;20020;-87
2022/08/04 01:05:02;;;;;;;4.68;2.50;;;18.80;99.90;;;;;;6280308;22;20090;-87
2022/08/04 01:07:50;;;;;;;6.22;2.67;;;18.80;99.90;;;;;;6307518;22;20089;-87
2022/08/04 01:10:39;;;;;;;11.10;2.78;;;18.80;99.90;;;;;;6281569;22;20090;-87
2022/08/04 01:13:36;;;;;;;8.35;2.88;;;18.70;99.90;;;;;;6306239;22;20443;-88
2022/08/04 01:16:06;;;;;;;9.20;3.13;;;18.80;99.90;;;;;;6307647;22;20094;-88
2022/08/04 01:18:41;;;;;;;9.98;2.40;;;18.70;99.90;;;;;;6306594;22;20030;-88
2022/08/04 01:21:22;;;;;;;13.52;3.30;;;18.70;99.90;;;;;;6281541;22;20015;-88
2022/08/04 01:24:25;;;;;;;11.43;3.10;;;18.60;99.90;;;;;;6308868;22;20011;-88
2022/08/04 01:27:01;;;;;;;10.55;2.80;;;18.60;99.90;;;;;;6280610;22;20019;-88
2022/08/04 01:29:31;;;;;;;8.52;2.70;;;18.60;99.90;;;;;;6309343;22;20015;-88
2022/08/04 01:32:02;;;;;;;20.27;4.05;;;18.50;99.90;;;;;;6308701;22;20018;-88
2022/08/04 01:34:40;;;;;;;7.88;2.45;;;18.50;99.90;;;;;;6307211;22;20518;-88
2022/08/04 01:37:36;;;;;;;7.60;2.53;;;18.60;99.90;;;;;;6307422;22;20011;-88
2022/08/04 01:40:07;;;;;;;11.75;3.60;;;18.50;99.90;;;;;;6306870;22;20050;-88
2022/08/04 01:42:35;;;;;;;8.13;3.42;;;18.50;99.90;;;;;;6281436;22;20450;-88
2022/08/04 01:45:07;;;;;;;15.82;4.28;;;18.50;99.90;;;;;;6306988;22;20026;-88
2022/08/04 01:47:36;;;;;;;8.10;2.90;;;18.50;99.90;;;;;;6280689;22;20019;-88
2022/08/04 01:50:08;;;;;;;6.22;2.65;;;18.50;99.90;;;;;;6307690;22;20027;-88
2022/08/04 01:52:36;;;;;;;8.35;2.90;;;18.50;99.90;;;;;;6306570;22;20019;-88
2022/08/04 01:55:05;;;;;;;7.95;3.40;;;18.50;99.90;;;;;;6280110;22;20027;-88
2022/08/04 01:57:35;;;;;;;9.88;2.83;;;18.50;99.90;;;;;;6306543;22;20023;-88
2022/08/04 02:00:04;;;;;;;12.55;3.85;;;18.60;99.90;;;;;;6307499;22;20094;-88
2022/08/04 02:02:30;;;;;;;7.70;3.13;;;18.50;99.90;;;;;;6279839;22;20050;-88
2022/08/04 02:04:58;;;;;;;10.35;3.30;;;18.50;99.90;;;;;;6281312;22;20015;-88
2022/08/04 02:07:59;;;;;;;8.98;3.47;;;18.60;99.90;;;;;;6305185;22;20026;-88
2022/08/04 02:10:42;;;;;;;8.20;3.10;;;18.60;99.90;;;;;;6281249;22;20027;-88
2022/08/04 02:13:26;;;;;;;11.82;3.00;;;18.50;99.90;;;;;;6308223;22;20011;-88
2022/08/04 02:16:21;;;;;;;11.17;2.97;;;18.50;99.90;;;;;;6306233;22;20023;-88
2022/08/04 02:19:04;;;;;;;8.15;2.83;;;18.50;99.90;;;;;;6306896;22;20454;-88
2022/08/04 02:21:31;;;;;;;12.65;3.58;;;18.40;99.90;;;;;;6305342;22;20016;-88
2022/08/04 02:24:23;;;;;;;19.80;3.60;;;18.40;99.90;;;;;;6306383;22;20317;-88
2022/08/04 02:26:51;;;;;;;10.40;3.22;;;18.50;99.90;;;;;;6280125;22;20019;-88
2022/08/04 02:29:19;;;;;;;8.27;3.10;;;18.40;99.90;;;;;;6280465;22;20305;-88
2022/08/04 02:31:56;;;;;;;9.00;3.13;;;18.30;99.90;;;;;;6306600;22;20057;-88
2022/08/04 02:34:30;;;;;;;8.25;2.80;;;18.50;99.90;;;;;;6306474;22;20024;-88
2022/08/04 02:37:01;;;;;;;11.68;3.28;;;18.50;99.90;;;;;;6306205;22;20015;-88
2022/08/04 02:39:32;;;;;;;9.57;2.95;;;18.50;99.90;;;;;;6306291;22;20026;-88
2022/08/04 02:42:01;;;;;;;5.97;3.40;;;18.60;99.90;;;;;;6308225;22;20011;-88
2022/08/04 02:44:29;;;;;;;9.15;3.22;;;18.60;99.90;;;;;;6279458;22;20034;-88
2022/08/04 02:46:55;;;;;;;5.57;2.83;;;18.50;99.90;;;;;;6306540;22;20015;-88
2022/08/04 02:49:22;;;;;;;5.88;2.80;;;18.50;99.90;;;;;;6280335;22;20042;-88
2022/08/04 02:51:58;;;;;;;6.57;3.42;;;18.60;99.90;;;;;;6308518;22;20319;-88
2022/08/04 02:54:31;;;;;;;10.02;3.13;;;18.60;99.90;;;;;;6306434;22;20019;-88
2022/08/04 02:56:59;;;;;;;9.80;2.92;;;17.80;99.90;;;;;;6282077;22;20015;-88
2022/08/04 02:59:28;;;;;;;4.88;2.90;;;18.50;99.90;;;;;;6309458;22;20450;-88
2022/08/04 03:01:58;;;;;;;10.52;3.33;;;18.50;99.90;;;;;;6310674;22;20015;-88
2022/08/04 03:04:32;;;;;;;9.30;3.33;;;18.50;99.90;;;;;;6308657;22;20015;-88
2022/08/04 03:07:35;;;;;;;7.63;2.92;;;18.50;99.90;;;;;;6307110;22;20046;-88
2022/08/04 03:10:01;;;;;;;8.10;3.60;;;18.50;99.90;;;;;;6280643;22;20045;-88
2022/08/04 03:12:57;;;;;;;10.90;3.85;;;18.40;99.90;;;;;;6279237;22;20094;-88
2022/08/04 03:15:39;;;;;;;;;;;;;;;;;;;;;
2022/08/04 03:18:20;;;;;;;9.95;4.13;;;18.40;99.90;;;;;;6306775;22;20015;-88
2022/08/04 03:21:13;;;;;;;6.90;3.28;;;18.50;99.90;;;;;;6280997;22;20012;-88
2022/08/04 03:24:00;;;;;;;9.10;3.47;;;18.50;99.90;;;;;;6280606;22;20049;-88
2022/08/04 03:26:44;;;;;;;12.60;4.53;;;18.50;99.90;;;;;;6306489;22;20073;-88
2022/08/04 03:29:22;;;;;;;14.67;4.87;;;18.50;99.90;;;;;;6255029;22;20076;-88
2022/08/04 03:32:05;;;;;;;12.13;4.82;;;18.40;99.90;;;;;;6279542;22;20022;-88
2022/08/04 03:34:55;;;;;;;14.32;4.50;;;18.90;99.90;;;;;;6308140;22;20019;-88
2022/08/04 03:37:55;;;;;;;7.95;4.45;;;18.40;99.90;;;;;;6224323;22;20031;-89
2022/08/04 03:40:55;;;;;;;7.65;4.35;;;18.40;99.90;;;;;;6276467;22;20047;-88
2022/08/04 03:43:35;;;;;;;12.90;5.07;;;18.30;99.90;;;;;;6224376;22;20482;-88
2022/08/04 03:46:25;;;;;;;7.47;4.07;;;18.40;99.90;;;;;;6248782;22;20119;-89
2022/08/04 03:49:09;;;;;;;11.38;4.75;;;18.30;99.90;;;;;;6249896;22;20020;-89
2022/08/04 03:55:08;;;;;;;9.05;4.70;;;18.40;99.90;;;;;;6248473;22;20028;-89
2022/08/04 03:58:19;;;;;;;11.70;5.25;;;18.40;99.90;;;;;;6224224;22;20459;-88
2022/08/04 04:01:06;;;;;;;9.95;4.78;;;18.30;99.90;;;;;;6223429;22;20477;-89
2022/08/04 04:04:01;;;;;;;13.23;4.75;;;18.30;99.90;;;;;;6224275;22;20016;-88
2022/08/04 04:06:45;;;;;;;7.87;4.87;;;18.30;99.90;;;;;;6276969;22;20059;-89
2022/08/04 04:09:23;;;;;;;11.93;4.30;;;19.30;99.90;;;;;;6249549;22;20439;-88
2022/08/04 04:12:27;;;;;;;10.73;4.55;;;17.30;99.90;;;;;;6223986;22;20097;-89
2022/08/04 04:15:11;;;;;;;11.40;4.75;;;18.20;99.90;;;;;;6248512;22;20545;-88
2022/08/04 04:18:14;;;;;;;15.63;5.60;;;18.20;99.90;;;;;;6224940;22;20435;-89
2022/08/04 04:20:54;;;;;;;11.27;5.93;;;18.30;99.90;;;;;;6278403;22;20011;-89
2022/08/04 04:23:51;;;;;;;12.57;5.57;;;18.20;99.90;;;;;;6226197;22;20023;-89
2022/08/04 04:26:47;;;;;;;9.65;5.95;;;18.30;99.90;;;;;;6277875;22;20011;-89
2022/08/04 04:29:28;;;;;;;12.73;5.93;;;18.30;99.90;;;;;;6250598;22;20440;-89
2022/08/04 04:32:22;;;;;;;10.73;5.25;;;18.30;99.90;;;;;;6226138;22;20102;-89
2022/08/04 04:35:06;;;;;;;7.75;5.40;;;18.40;99.90;;;;;;6226638;22;20020;-88
2022/08/04 04:37:59;;;;;;;21.42;6.72;;;18.50;99.90;;;;;;6225963;22;20038;-89
2022/08/04 04:40:44;;;;;;;10.73;6.35;;;18.30;99.90;;;;;;6250858;22;20016;-89
2022/08/04 04:43:31;;;;;;;13.98;6.18;;;18.30;99.90;;;;;;6225693;22;20022;-89
2022/08/04 04:46:22;;;;;;;13.05;7.13;;;18.40;99.90;;;;;;6251363;22;20016;-89
2022/08/04 04:49:10;;;;;;;15.60;7.00;;;18.40;99.90;;;;;;6183881;22;20466;-88
2022/08/04 04:51:50;;;;;;;12.18;6.88;;;18.40;99.90;;;;;;6226322;22;20018;-89
2022/08/04 04:54:37;;;;;;;14.40;6.88;;;18.40;99.90;;;;;;6226477;22;20015;-89
2022/08/04 04:57:16;;;;;;;16.15;7.60;;;18.50;99.90;;;;;;6277680;22;20016;-88
2022/08/04 04:59:54;;;;;;;13.57;6.93;;;18.60;99.90;;;;;;6225301;22;20093;-88
2022/08/04 05:02:50;;;;;;;12.48;6.57;;;18.60;99.90;;;;;;6226450;22;20324;-88
2022/08/04 05:05:54;;;;;;;12.93;6.57;;;18.70;99.90;;;;;;6250256;22;20083;-88
2022/08/04 05:08:40;;;;;;;16.10;7.03;;;18.70;99.90;;;;;;6278437;22;20459;-88
2022/08/04 05:11:21;;;;;;;10.43;6.57;;;18.80;99.90;;;;;;6249889;22;20016;-89
2022/08/04 05:13:57;;;;;;;11.00;6.32;;;18.80;99.90;;;;;;6225586;22;20028;-89
2022/08/04 05:16:42;;;;;;;18.92;6.10;;;18.90;99.90;;;;;;6250851;22;20382;-88
2022/08/04 05:19:56;;;;;;;15.50;7.80;;;19.00;99.90;;;;;;6250254;22;20016;-88
2022/08/04 05:22:44;;;;;;;11.75;5.13;;;19.00;99.90;;;;;;6229477;22;20027;-88
2022/08/04 05:25:25;;;;;;;11.73;4.70;;;19.10;99.90;;;;;;6207659;22;20069;-88
2022/08/04 05:28:30;;;;;;;8.27;4.47;;;19.20;99.90;;;;;;6224332;22;20031;-89
2022/08/04 05:31:09;;;;;;;9.52;4.53;;;19.20;99.90;;;;;;6241724;22;20047;-89
2022/08/04 05:33:56;;;;;;;13.38;5.53;;;19.20;99.90;;;;;;6225537;22;20389;-88
2022/08/04 05:36:39;;;;;;;;;;;;;;;;;;;;;
2022/08/04 05:39:09;;;;;;;17.40;6.72;;;19.40;99.90;;;;;;6249898;22;20328;-88
2022/08/04 05:41:35;;;;;;;16.92;7.00;;;19.50;99.90;;;;;;6276934;22;20051;-88
2022/08/04 05:44:16;;;;;;;;;;;;;;;;;;;;;
2022/08/04 05:47:06;;;;;;;16.00;7.00;;;19.80;99.90;;;;;;6248124;22;20073;-88
2022/08/04 05:49:43;;;;;;;;;;;;;;;;;;;;;
2022/08/04 05:52:17;;;;;;;15.45;6.47;;;20.10;99.90;;;;;;6277643;22;20171;-88
2022/08/04 05:55:02;;;;;;;15.70;6.15;;;20.20;99.90;;;;;;6251038;22;20093;-89
2022/08/04 06:00:26;;;;;;;11.83;6.93;;;20.40;99.90;;;;;;6261830;22;20359;-89
2022/08/04 06:02:54;;;;;;;9.35;6.15;;;20.70;99.90;;;;;;6250826;22;20584;-89
2022/08/04 06:05:22;;;;;;;9.50;6.28;;;20.80;99.90;;;;;;6250212;22;20011;-88
2022/08/04 06:07:49;;;;;;;13.60;6.70;;;21.00;99.90;;;;;;6276694;22;20027;-89
2022/08/04 06:10:17;;;;;;;10.98;6.32;;;21.20;99.90;;;;;;6276643;22;20444;-89
2022/08/04 06:12:48;;;;;;;16.27;6.40;;;21.30;99.90;;;;;;6225071;22;20019;-88
2022/08/04 06:15:19;;;;;;;15.38;5.63;;;21.50;99.90;;;;;;6249388;22;20026;-89
2022/08/04 06:17:54;;;;;;;10.38;6.10;;;21.60;99.90;;;;;;6224864;22;20015;-88
2022/08/04 06:20:48;;;;;;;15.02;5.32;;;21.40;99.90;;;;;;6224688;22;20436;-88
2022/08/04 06:23:14;;;;;;;8.68;4.88;;;21.90;99.90;;;;;;6246537;22;20020;-89
2022/08/04 06:25:46;;;;;;;6.75;4.32;;;22.10;99.90;;;;;;6250841;22;20016;-89
2022/08/04 06:28:14;;;;;;;12.00;4.55;;;22.20;99.90;;;;;;6275669;22;20095;-90
2022/08/04 06:30:48;;;;;;;9.07;4.35;;;22.30;99.90;;;;;;6250714;22;20016;-89
2022/08/04 06:33:25;;;;;;;7.38;4.32;;;22.30;99.90;;;;;;6276854;22;20026;-89
2022/08/04 06:39:10;;;;;;;10.35;3.72;;;22.50;99.90;;;;;;6266956;22;20033;-90
2022/08/04 06:41:59;;;;;;;15.38;4.18;;;22.50;99.90;;;;;;6224000;22;20099;-90
2022/08/04 06:44:50;;;;;;;8.98;3.60;;;22.60;99.90;;;;;;6206613;22;20015;-90
2022/08/04 06:47:21;;;;;;;11.57;4.93;;;23.00;99.90;;;;;;6251000;22;20034;-90
2022/08/04 06:50:19;;;;;;;8.02;3.13;;;22.30;99.90;;;;;;6276471;22;20027;-90
2022/08/04 06:53:13;;;;;;;9.13;3.30;;;22.70;99.90;;;;;;6242349;22;20047;-90
2022/08/04 06:56:11;;;;;;;10.75;4.70;;;22.70;99.90;;;;;;6247597;22;20116;-89
2022/08/04 06:58:37;;;;;;;11.57;4.50;;;21.80;99.90;;;;;;6247174;22;20107;-90
2022/08/04 07:07:57;;;;;;;11.95;4.45;;;23.00;99.90;;;;;;6241928;22;20015;-89
2022/08/04 07:11:10;;;;;;;11.07;5.40;;;23.00;99.90;;;;;;6234299;22;20095;-90
2022/08/04 07:14:14;;;;;;;14.48;4.40;;;23.20;99.90;;;;;;6226196;22;20023;-92
2022/08/04 07:18:05;;;;;;;;;;;;;;;;;;;;;
2022/08/04 07:24:15;;;;;;;10.65;4.57;;;23.20;99.90;;;;;;6211527;22;20026;-91
2022/08/04 07:31:13;;;;;;;13.02;4.65;;;23.10;99.90;;;;;;6156376;23;20032;-90
2022/08/04 07:42:10;;;;;;;;;;;;;;;;;;;;;
2022/08/04 07:57:34;;;;;;;9.63;4.40;;;24.30;99.90;;;;;;6060019;23;20078;-92
2022/08/04 08:07:33;;;;;;;14.43;4.25;;;23.80;99.90;;;;;;6021744;23;20034;-93
2022/08/04 08:09:59;;;;;;;11.75;4.07;;;23.80;99.90;;;;;;6011223;23;20028;-92
2022/08/04 08:13:28;;;;;;;;;;;;;;;;;;;;;
2022/08/04 08:15:59;;;;;;;;;;;;;;;;;;;;;
2022/08/04 08:22:48;;;;;;;11.40;4.67;;;23.60;99.90;;;;;;6109753;22;20025;-93
2022/08/04 08:26:07;;;;;;;;;;;;;;;;;;;;;
2022/08/04 08:29:15;;;;;;;9.38;5.43;;;23.80;99.90;;;;;;6215383;22;20071;-91
2022/08/04 08:32:35;;;;;;;;;;;;;;;;;;;;;
2022/08/04 08:35:16;;;;;;;10.43;4.47;;;23.80;99.90;;;;;;6245467;22;20023;-92
2022/08/04 08:41:26;;;;;;;;;;;;;;;;;;;;;
2022/08/04 08:44:23;;;;;;;11.63;5.35;;;23.50;99.90;;;;;;6235956;22;20094;-91
2022/08/04 08:46:55;;;;;;;;;;;23.80;99.90;;;;;;6258578;22;20090;-91
2022/08/04 08:50:06;;;;;;;13.20;4.75;;;23.70;99.90;;;;;;6250602;22;20335;-92
2022/08/04 08:52:53;;;;;;;7.25;3.50;;;23.10;99.90;;;;;;6252707;22;20086;-91
2022/08/04 08:55:36;;;;;;;7.90;2.83;;;23.70;99.90;;;;;;6250776;22;20339;-91
2022/08/04 08:58:19;;;;;;;6.50;3.63;;;23.80;99.90;;;;;;6279146;22;20059;-91
2022/08/04 09:01:10;;;;;;;7.82;2.85;;;23.80;99.90;;;;;;6250664;22;20096;-91
2022/08/04 09:07:20;;;;;;;;;;;;;;;;;;;;;
2022/08/04 09:16:57;;;;;;;9.40;2.20;;;24.10;99.90;;;;;;6164797;23;20025;-92
2022/08/04 09:19:57;;;;;;;8.65;2.08;;;24.30;99.90;;;;;;6276672;22;20012;-93
2022/08/04 09:22:48;;;;;;;6.75;2.13;;;24.30;99.90;;;;;;6248853;22;20012;-91
2022/08/04 09:25:26;;;;;;;7.25;2.40;;;24.40;99.90;;;;;;6275845;22;20011;-90
2022/08/04 09:27:54;;;;;;;10.32;2.97;;;24.50;99.90;;;;;;6276542;22;20117;-89
2022/08/04 09:30:39;;;;;;;7.82;2.95;;;24.60;99.90;;;;;;6275328;22;20007;-91
2022/08/04 09:33:30;;;;;;;7.20;1.83;;;24.80;99.90;;;;;;6250651;22;20015;-91
2022/08/04 09:36:10;;;;;;;6.03;1.90;;;24.80;99.90;;;;;;6277357;22;20020;-90
2022/08/04 09:39:24;;;;;;;10.65;2.42;;;24.80;99.90;;;;;;6275745;22;20399;-91
2022/08/04 09:42:33;;;;;;;7.43;1.58;;;24.80;99.90;;;;;;6196064;22;20020;-88
2022/08/04 09:45:28;;;;;;;6.03;1.65;;;24.80;99.90;;;;;;6200133;22;20091;-89
2022/08/04 09:48:09;;;;;;;6.55;1.73;;;23.80;99.90;;;;;;6250657;22;20086;-89
2022/08/04 09:50:46;;;;;;;10.93;2.20;;;24.80;99.90;;;;;;6276051;22;20016;-90
2022/08/04 09:53:15;;;;;;;4.53;1.80;;;24.90;99.90;;;;;;6275330;22;20337;-89
2022/08/04 09:55:51;;;;;;;6.70;1.67;;;24.80;99.90;;;;;;6276293;22;20015;-89
2022/08/04 09:58:27;;;;;;;12.20;2.50;;;24.10;99.90;;;;;;6277740;22;20432;-90
2022/08/04 10:01:01;;;;;;;14.38;2.38;;;25.00;99.90;;;;;;6250227;22;20023;-90
2022/08/04 10:03:32;;;;;;;;;;;25.10;99.90;;;;;;6277016;22;20094;-89
2022/08/04 10:06:38;;;;;;;7.47;3.13;;;25.10;99.90;;;;;;6275757;22;20338;-89
2022/08/04 10:09:29;;;;;;;11.07;2.10;;;25.20;99.90;;;;;;6275500;22;20023;-89
2022/08/04 10:12:20;;;;;;;6.40;1.80;;;25.30;99.90;;;;;;6250703;22;20335;-90
2022/08/04 10:14:56;;;;;;;7.18;2.63;;;25.40;99.90;;;;;;6273958;22;20098;-90
2022/08/04 10:17:36;;;;;;;8.90;2.47;;;25.40;99.90;;;;;;6251375;22;20508;-91
2022/08/04 10:20:25;;;;;;;6.05;1.90;;;25.60;99.90;;;;;;6274621;22;20061;-90
2022/08/04 10:23:11;;;;;;;4.53;1.45;;;25.70;99.90;;;;;;6277938;22;20447;-91
2022/08/04 10:26:32;;;;;;;;;;;;;;;;;;;;;
2022/08/04 10:29:43;;;;;;;4.00;1.17;;;25.60;99.90;;;;;;6278327;22;20038;-92
2022/08/04 10:32:49;;;;;;;;;;;;;;;;;;;;;
2022/08/04 10:36:04;;;;;;;;;;;;;;;;;;;;;
2022/08/04 10:39:17;;;;;;;2.83;1.27;;;25.50;99.90;;;;;;6213168;23;20019;-94
2022/08/04 10:41:43;;;;;;;2.20;1.20;;;25.60;99.90;;;;;;6225132;22;20101;-90
2022/08/04 10:44:51;;;;;;;4.00;0.93;;;25.60;99.90;;;;;;6275895;22;20448;-90
2022/08/04 10:47:53;;;;;;;4.80;0.88;;;25.60;99.90;;;;;;6263334;22;20431;-91
2022/08/04 10:50:58;;;;;;;1.25;0.80;;;25.70;99.90;;;;;;6244327;22;20020;-93
2022/08/04 10:53:55;;;;;;;1.65;1.00;;;25.90;99.90;;;;;;6275327;22;20012;-91
2022/08/04 10:56:46;;;;;;;3.15;1.00;;;25.60;99.90;;;;;;6274910;22;20019;-91
2022/08/04 10:59:20;;;;;;;4.45;0.98;;;25.70;99.90;;;;;;6228795;22;20019;-91
2022/08/04 11:02:17;;;;;;;2.78;1.15;;;25.70;99.90;;;;;;6275490;22;20098;-91
2022/08/04 11:05:12;;;;;;;3.83;0.90;;;25.70;99.90;;;;;;6249524;22;20427;-91
2022/08/04 11:07:50;;;;;;;;;;;25.60;99.90;;;;;;6250710;22;20024;-90
2022/08/04 11:11:02;;;;;;;3.40;1.02;;;25.60;99.90;;;;;;6252688;22;19919;-90
2022/08/04 11:13:46;;;;;;;4.32;1.10;;;25.40;99.90;;;;;;6276611;22;20061;-90
2022/08/04 11:16:41;;;;;;;3.92;1.13;;;25.50;99.90;;;;;;6224583;22;20023;-89
2022/08/04 11:19:38;;;;;;;2.45;1.10;;;25.50;99.90;;;;;;6277435;22;20019;-91
2022/08/04 11:26:48;;;;;;;;;;;;;;;;;;;;;
2022/08/04 11:33:28;;;;;;;;;;;;;;;;;;;;;
2022/08/04 11:37:14;;;;;;;3.20;1.65;;;24.40;99.90;;;;;;6158874;23;20071;-90
2022/08/04 11:40:26;;;;;;;;;;;;;;;;;;;;;
2022/08/04 11:43:48;;;;;;;5.57;1.40;;;24.70;99.90;;;;;;6158865;23;20017;-90
2022/08/04 11:46:41;;;;;;;1.73;0.85;;;25.00;99.90;;;;;;6070422;23;20486;-91
2022/08/04 11:49:46;;;;;;;;;;;;;;;;;;;;;
2022/08/04 11:52:58;;;;;;;6.40;1.10;;;25.20;99.90;;;;;;6249770;22;20015;-91
2022/08/04 11:55:26;;;;;;;2.83;0.82;;;25.60;99.90;;;;;;6277398;22;20073;-92
2022/08/04 11:57:56;;;;;;;1.65;0.70;;;25.40;99.90;;;;;;6250279;22;20027;-92
2022/08/04 12:00:28;;;;;;;1.35;0.70;;;25.30;99.90;;;;;;6249147;22;20034;-91
2022/08/04 12:03:44;;;;;;;;;;;;;;;;;;;;;
2022/08/04 12:06:51;;;;;;;3.50;1.70;;;25.40;99.90;;;;;;6274941;22;20378;-90
2022/08/04 12:09:22;;;;;;;4.72;1.30;;;25.10;99.90;;;;;;6267989;22;20070;-93
2022/08/04 12:12:19;;;;;;;2.40;1.00;;;25.10;99.90;;;;;;6275427;22;20016;-92
2022/08/04 12:15:12;;;;;;;4.35;0.90;;;25.10;99.90;;;;;;6274919;22;20020;-91
2022/08/04 12:17:59;;;;;;;1.77;0.88;;;25.10;99.90;;;;;;6275457;22;20047;-92
2022/08/04 12:20:55;;;;;;;2.78;0.88;;;25.10;99.90;;;;;;6274273;22;20023;-91
2022/08/04 12:24:09;;;;;;;1.50;0.82;;;25.00;99.90;;;;;;6275598;22;20012;-90
2022/08/04 12:30:05;;;;;;;3.63;0.93;;;24.90;99.90;;;;;;6271695;22;20510;-90
2022/08/04 12:33:08;;;;;;;;;;;;;;;;;;;;;
2022/08/04 12:35:59;;;;;;;3.13;0.85;;;25.10;99.90;;;;;;6274301;22;20078;-90
2022/08/04 12:38:56;;;;;;;6.70;0.77;;;25.00;99.90;;;;;;6265420;22;20015;-92
2022/08/04 12:41:44;;;;;;;3.58;1.02;;;25.60;99.90;;;;;;6250829;22;20049;-91
2022/08/04 12:44:13;;;;;;;1.95;1.10;;;24.90;99.90;;;;;;6277458;22;20020;-88
2022/08/04 12:46:44;;;;;;;5.30;0.93;;;25.00;99.90;;;;;;6277440;22;20054;-91
2022/08/04 12:49:13;;;;;;;5.10;0.90;;;25.20;99.90;;;;;;6275700;22;20058;-90
2022/08/04 12:55:20;;;;;;;2.80;0.77;;;25.40;99.90;;;;;;6241606;22;20399;-90
2022/08/04 12:58:04;;;;;;;2.28;0.90;;;25.60;99.90;;;;;;6274910;22;20024;-91
2022/08/04 13:00:57;;;;;;;4.32;1.25;;;25.70;99.90;;;;;;6275551;22;20019;-92
2022/08/04 13:03:58;;;;;;;4.50;1.15;;;25.70;99.90;;;;;;6248327;22;20338;-92
2022/08/04 13:06:33;;;;;;;5.78;0.70;;;25.20;99.90;;;;;;6190074;23;20017;-90
2022/08/04 13:09:09;;;;;;;3.67;0.90;;;25.80;99.90;;;;;;6274930;22;20012;-91
2022/08/04 13:12:10;;;;;;;2.78;0.90;;;25.80;99.90;;;;;;6272238;22;20030;-90
2022/08/04 13:14:38;;;;;;;3.58;0.93;;;25.80;99.90;;;;;;6250647;22;20062;-91
2022/08/04 13:17:05;;;;;;;2.78;0.90;;;25.80;99.90;;;;;;6276240;22;20023;-90
2022/08/04 13:19:40;;;;;;;4.40;0.85;;;26.00;99.90;;;;;;6250914;22;20019;-89
2022/08/04 13:22:06;;;;;;;3.30;0.82;;;26.00;99.90;;;;;;6250294;22;20440;-93
2022/08/04 13:24:34;;;;;;;2.25;0.90;;;26.10;99.90;;;;;;6276416;22;20085;-89
2022/08/04 13:27:32;;;;;;;7.97;2.13;;;26.00;99.90;;;;;;6250535;22;20016;-89
2022/08/04 13:30:00;;;;;;;2.60;0.90;;;26.10;99.90;;;;;;6274502;22;20463;-89
2022/08/04 13:32:29;;;;;;;3.30;0.90;;;26.00;99.90;;;;;;6277012;22;20094;-91
2022/08/04 13:35:00;;;;;;;1.75;0.85;;;26.10;99.90;;;;;;6275902;22;20027;-90
2022/08/04 13:37:38;;;;;;;4.35;0.80;;;25.00;99.90;;;;;;6274807;22;20012;-91
2022/08/04 13:40:12;;;;;;;4.53;0.98;;;26.00;99.90;;;;;;6249395;22;20340;-88
2022/08/04 13:42:57;;;;;;;4.20;1.17;;;25.90;99.90;;;;;;6276917;22;20053;-89
2022/08/04 13:45:39;;;;;;;;;;;;;;;;;;;;;
2022/08/04 13:48:19;;;;;;;2.22;0.80;;;25.70;99.90;;;;;;6278390;22;20016;-90
2022/08/04 13:50:46;;;;;;;2.17;1.52;;;26.00;99.90;;;;;;6275769;22;20016;-90
2022/08/04 13:53:16;;;;;;;2.67;0.98;;;26.00;99.90;;;;;;6276932;22;20020;-90
2022/08/04 13:55:46;;;;;;;3.47;1.23;;;26.00;99.90;;;;;;6278085;22;20019;-91
2022/08/04 13:58:32;;;;;;;;;;;;;;;;;;;;;
2022/08/04 14:01:18;;;;;;;3.38;0.98;;;26.00;99.90;;;;;;6276750;22;20019;-91
2022/08/04 14:04:05;;;;;;;7.32;1.45;;;26.00;99.50;;;;;;6278393;22;20016;-88
2022/08/04 14:06:54;;;;;;;;;;;;;;;;;;;;;
2022/08/04 14:09:23;;;;;;;2.25;0.63;;;26.10;99.60;;;;;;6276399;22;20016;-90
2022/08/04 14:11:52;;;;;;;6.13;1.23;;;26.00;99.00;;;;;;6275305;22;20026;-88
2022/08/04 14:14:24;;;;;;;2.95;0.88;;;25.90;98.90;;;;;;6276019;22;20519;-90
2022/08/04 14:17:07;;;;;;;2.85;0.80;;;25.80;98.50;;;;;;6251365;22;20305;-91
2022/08/04 14:19:45;;;;;;;8.38;1.30;;;25.70;99.90;;;;;;6249843;22;20027;-90
2022/08/04 14:22:33;;;;;;;3.78;1.10;;;25.70;99.90;;;;;;6250571;22;20099;-90
2022/08/04 14:25:03;;;;;;;5.45;1.15;;;25.70;99.80;;;;;;6277431;22;20023;-90
2022/08/04 14:27:40;;;;;;;4.35;1.25;;;25.70;99.90;;;;;;6277162;22;20343;-88
2022/08/04 14:30:19;;;;;;;4.28;1.30;;;25.60;99.90;;;;;;6278015;22;20440;-90
2022/08/04 14:33:03;;;;;;;7.53;1.50;;;25.60;99.90;;;;;;6249720;22;20474;-90
2022/08/04 14:35:31;;;;;;;;;;;25.00;98.30;;;;;;6278396;22;20343;-90
2022/08/04 14:38:02;;;;;;;6.93;1.38;;;25.80;99.90;;;;;;6250633;22;19915;-90
2022/08/04 14:40:31;;;;;;;2.67;0.82;;;25.50;98.90;;;;;;6275177;22;20023;-88
2022/08/04 14:42:57;;;;;;;1.73;1.00;;;26.00;99.00;;;;;;6250644;22;20098;-91
2022/08/04 14:46:02;;;;;;;4.32;1.60;;;26.00;97.50;;;;;;6275874;22;20448;-88
2022/08/04 14:48:30;;;;;;;2.40;1.10;;;25.90;97.60;;;;;;6274975;22;20023;-91
2022/08/04 14:50:59;;;;;;;2.83;1.25;;;25.80;97.90;;;;;;6275968;22;20277;-89
2022/08/04 14:53:25;;;;;;;3.05;1.35;;;25.90;98.20;;;;;;6250140;22;20020;-91
2022/08/04 14:55:54;;;;;;;3.78;1.00;;;25.90;97.70;;;;;;6249780;22;20026;-91
2022/08/04 14:58:22;;;;;;;7.20;1.45;;;26.00;97.90;;;;;;6250325;22;20098;-89
2022/08/04 15:00:50;;;;;;;4.57;1.40;;;26.10;98.20;;;;;;6251695;22;20320;-89
2022/08/04 15:03:19;;;;;;;9.35;2.13;;;26.30;98.00;;;;;;6279584;22;20085;-90
2022/08/04 15:05:46;;;;;;;5.93;1.33;;;26.20;98.40;;;;;;6280047;22;20043;-87
2022/08/04 15:08:15;;;;;;;12.55;1.77;;;26.00;99.10;;;;;;6255387;22;20110;-89
2022/08/04 15:10:42;;;;;;;8.73;2.05;;;25.50;99.90;;;;;;6276437;22;20024;-87
2022/08/04 15:13:18;;;;;;;;;;;;;;;;;;;;;
2022/08/04 15:15:46;;;;;;;10.93;2.35;;;24.90;99.90;;;;;;6275142;22;20027;-89
2022/08/04 15:18:12;;;;;;;7.50;2.20;;;24.70;99.90;;;;;;6275624;22;20451;-89
2022/08/04 15:20:41;;;;;;;9.93;2.75;;;24.60;99.90;;;;;;6275663;22;20432;-87
2022/08/04 15:23:07;;;;;;;10.48;2.15;;;24.60;99.90;;;;;;6276633;22;20016;-90
2022/08/04 15:25:39;;;;;;;5.25;1.90;;;24.70;99.90;;;;;;6250423;22;20058;-88
2022/08/04 15:28:12;;;;;;;5.82;1.50;;;24.60;99.90;;;;;;6250215;22;20026;-89
2022/08/04 15:30:39;;;;;;;6.95;2.10;;;24.60;99.90;;;;;;6249238;22;20015;-88
2022/08/04 15:33:08;;;;;;;6.38;2.08;;;24.40;99.90;;;;;;6250463;22;20022;-89
2022/08/04 15:35:34;;;;;;;5.68;2.17;;;24.40;99.90;;;;;;6276873;22;20051;-90
2022/08/04 15:38:37;;;;;;;4.45;1.73;;;24.30;99.90;;;;;;6249411;22;20462;-89
2022/08/04 15:41:13;;;;;;;5.53;1.58;;;24.30;99.90;;;;;;6277598;22;20011;-89
2022/08/04 15:43:57;;;;;;;5.22;1.35;;;24.50;99.90;;;;;;6274418;22;20091;-87
2022/08/04 15:46:46;;;;;;;3.45;1.08;;;24.40;99.90;;;;;;6277221;22;20334;-88
2022/08/04 15:49:25;;;;;;;5.88;1.10;;;24.50;99.90;;;;;;6233962;22;20024;-86
2022/08/04 15:52:23;;;;;;;4.32;1.30;;;24.40;99.90;;;;;;6275279;22;20038;-90
2022/08/04 15:55:28;;;;;;;2.30;0.90;;;24.30;99.90;;;;;;6225992;22;20019;-87
2022/08/04 15:58:21;;;;;;;2.17;0.80;;;24.10;99.90;;;;;;6249289;22;20016;-89
2022/08/04 16:00:53;;;;;;;1.45;0.93;;;24.00;99.90;;;;;;6277763;22;20020;-89
2022/08/04 16:03:34;;;;;;;3.10;1.10;;;23.90;99.90;;;;;;6250646;22;20023;-90